createdAt,value
2018-07-24T00:01:02.284Z,99.90
2018-07-24T00:03:31.593Z,99.90
2018-07-24T00:06:00.967Z,99.90
2018-07-24T00:08:30.376Z,99.90
2018-07-24T00:10:59.762Z,99.90
2018-07-24T00:15:58.340Z,99.90
2018-07-24T00:18:27.653Z,99.90
2018-07-24T00:20:56.980Z,99.90
2018-07-24T00:23:26.311Z,99.90
2018-07-24T00:25:55.738Z,99.90
2018-07-24T00:28:25.103Z,99.90
2018-07-24T00:30:54.472Z,99.90
2018-07-24T00:33:23.767Z,99.90
2018-07-24T00:35:53.171Z,99.90
2018-07-24T00:38:22.513Z,99.90
2018-07-24T00:40:51.844Z,99.90
2018-07-24T00:45:50.052Z,99.90
2018-07-24T00:48:19.490Z,99.90
2018-07-24T00:50:48.895Z,99.90
2018-07-24T00:53:18.202Z,99.90
2018-07-24T00:55:47.586Z,99.90
2018-07-24T00:58:16.940Z,99.90
2018-07-24T01:03:15.289Z,99.90
2018-07-24T01:05:44.643Z,99.90
2018-07-24T01:13:11.753Z,99.90
2018-07-24T01:15:41.164Z,99.90
2018-07-24T01:18:10.524Z,99.90
2018-07-24T01:20:39.903Z,99.90
2018-07-24T01:25:38.309Z,99.90
2018-07-24T01:28:07.704Z,99.90
2018-07-24T01:30:40.015Z,99.90
2018-07-24T01:33:09.385Z,99.90
2018-07-24T01:35:38.738Z,99.90
2018-07-24T01:38:08.126Z,99.90
2018-07-24T01:40:37.521Z,99.90
2018-07-24T01:43:06.937Z,99.90
2018-07-24T01:45:36.256Z,99.90
2018-07-24T01:48:05.698Z,99.90
2018-07-24T01:50:35.020Z,99.90
2018-07-24T01:55:33.296Z,99.90
2018-07-24T01:58:02.863Z,99.90
2018-07-24T02:00:35.107Z,99.90
2018-07-24T02:03:04.523Z,99.90
2018-07-24T02:05:33.884Z,99.90
2018-07-24T02:08:03.275Z,99.90
2018-07-24T02:10:32.663Z,99.90
2018-07-24T02:13:02.008Z,99.90
2018-07-24T02:15:31.335Z,99.90
2018-07-24T02:18:00.676Z,99.90
2018-07-24T02:20:30.007Z,99.90
2018-07-24T02:22:59.364Z,99.90
2018-07-24T02:25:28.695Z,99.90
2018-07-24T02:27:58.043Z,99.90
2018-07-24T02:30:27.405Z,99.90
2018-07-24T02:32:57.421Z,99.90
2018-07-24T02:35:26.769Z,99.90
2018-07-24T02:37:56.133Z,99.90
2018-07-24T02:40:25.488Z,99.90
2018-07-24T02:42:54.890Z,99.90
2018-07-24T02:45:24.232Z,99.90
2018-07-24T02:47:53.596Z,99.90
2018-07-24T02:50:22.949Z,99.90
2018-07-24T02:52:52.297Z,99.90
2018-07-24T02:55:21.748Z,99.90
2018-07-24T02:57:51.094Z,99.90
2018-07-24T03:00:20.492Z,99.90
2018-07-24T03:02:49.838Z,99.90
2018-07-24T03:05:19.234Z,99.90
2018-07-24T03:07:48.564Z,99.90
2018-07-24T03:10:17.910Z,99.90
2018-07-24T03:12:47.244Z,99.90
2018-07-24T03:15:16.602Z,99.90
2018-07-24T03:17:45.944Z,99.90
2018-07-24T03:20:15.332Z,99.90
2018-07-24T03:22:44.680Z,99.90
2018-07-24T03:25:14.058Z,99.90
2018-07-24T03:27:43.438Z,99.90
2018-07-24T03:30:12.793Z,99.90
2018-07-24T03:32:42.169Z,99.90
2018-07-24T03:35:11.599Z,99.90
2018-07-24T03:37:40.944Z,99.90
2018-07-24T03:40:10.300Z,99.90
2018-07-24T03:42:39.648Z,99.90
2018-07-24T03:45:09.147Z,99.90
2018-07-24T03:47:38.472Z,99.90
2018-07-24T03:50:07.805Z,99.90
2018-07-24T03:52:37.140Z,99.90
2018-07-24T03:55:06.516Z,99.90
2018-07-24T03:57:35.856Z,99.90
2018-07-24T04:00:05.714Z,99.90
2018-07-24T04:02:35.049Z,99.90
2018-07-24T04:05:04.527Z,99.90
2018-07-24T04:07:33.861Z,99.90
2018-07-24T04:10:03.313Z,99.90
2018-07-24T04:15:01.538Z,99.90
2018-07-24T04:17:30.916Z,99.90
2018-07-24T04:20:00.278Z,99.90
2018-07-24T04:22:29.599Z,99.90
2018-07-24T04:27:27.820Z,99.90
2018-07-24T04:29:57.299Z,99.90
2018-07-24T04:34:55.560Z,99.90
2018-07-24T04:37:24.861Z,99.90
2018-07-24T04:39:54.285Z,99.90
2018-07-24T04:42:23.607Z,99.90
2018-07-24T04:44:53.333Z,99.90
2018-07-24T04:47:22.712Z,99.90
2018-07-24T04:49:52.081Z,99.90
2018-07-24T04:52:21.427Z,99.90
2018-07-24T04:54:50.774Z,99.90
2018-07-24T04:57:20.149Z,99.90
2018-07-24T04:59:49.521Z,99.90
2018-07-24T05:02:18.848Z,99.90
2018-07-24T05:04:48.210Z,99.90
2018-07-24T05:07:17.532Z,99.90
2018-07-24T05:09:46.918Z,99.90
2018-07-24T05:12:16.310Z,99.90
2018-07-24T05:14:45.665Z,99.90
2018-07-24T05:17:15.001Z,99.90
2018-07-24T05:19:44.342Z,99.90
2018-07-24T05:22:13.903Z,99.90
2018-07-24T05:24:44.081Z,99.90
2018-07-24T05:27:13.641Z,99.90
2018-07-24T05:29:43.241Z,99.90
2018-07-24T05:32:12.788Z,99.90
2018-07-24T05:34:42.460Z,99.90
2018-07-24T05:37:12.123Z,99.90
2018-07-24T05:39:41.608Z,99.90
2018-07-24T05:44:39.922Z,99.90
2018-07-24T05:47:09.381Z,99.90
2018-07-24T05:49:38.682Z,99.90
2018-07-24T05:52:08.033Z,99.90
2018-07-24T05:54:37.352Z,99.90
2018-07-24T05:57:06.792Z,99.90
2018-07-24T05:59:36.217Z,99.90
2018-07-24T06:02:05.632Z,99.90
2018-07-24T06:04:34.982Z,99.90
2018-07-24T06:07:04.385Z,99.90
2018-07-24T06:09:33.757Z,99.90
2018-07-24T06:12:03.157Z,99.90
2018-07-24T06:14:32.577Z,99.90
2018-07-24T06:17:01.953Z,99.90
2018-07-24T06:19:31.311Z,99.90
2018-07-24T06:22:00.655Z,99.90
2018-07-24T06:24:29.979Z,99.90
2018-07-24T06:26:59.389Z,99.90
2018-07-24T06:29:28.711Z,99.90
2018-07-24T06:31:58.104Z,99.90
2018-07-24T06:34:27.449Z,99.90
2018-07-24T06:39:25.776Z,99.90
2018-07-24T06:41:55.147Z,99.90
2018-07-24T06:46:53.373Z,99.90
2018-07-24T06:49:22.747Z,99.90
2018-07-24T06:51:52.153Z,99.90
2018-07-24T06:54:21.510Z,99.90
2018-07-24T06:56:50.956Z,99.90
2018-07-24T06:59:20.343Z,99.90
2018-07-24T07:01:49.775Z,99.90
2018-07-24T07:04:19.145Z,99.90
2018-07-24T07:06:48.494Z,99.90
2018-07-24T07:09:17.823Z,99.90
2018-07-24T07:11:47.156Z,99.90
2018-07-24T07:16:45.456Z,99.90
2018-07-24T07:19:15.533Z,99.90
2018-07-24T07:21:44.896Z,99.90
2018-07-24T07:24:14.273Z,99.90
2018-07-24T07:29:12.559Z,99.90
2018-07-24T07:31:41.928Z,99.50
2018-07-24T07:34:11.296Z,99.40
2018-07-24T07:36:40.625Z,99.10
2018-07-24T07:39:11.077Z,99.10
2018-07-24T07:41:40.799Z,99.40
2018-07-24T07:44:10.212Z,99.50
2018-07-24T07:49:08.478Z,99.20
2018-07-24T07:51:37.817Z,98.70
2018-07-24T07:54:07.181Z,98.50
2018-07-24T07:56:36.519Z,98.30
2018-07-24T07:59:05.880Z,98.70
2018-07-24T08:01:35.249Z,98.80
2018-07-24T08:04:04.653Z,98.20
2018-07-24T08:06:33.996Z,98.00
2018-07-24T08:11:33.000Z,98.10
2018-07-24T08:14:02.388Z,98.30
2018-07-24T08:16:31.733Z,97.70
2018-07-24T08:19:02.701Z,97.40
2018-07-24T08:21:32.409Z,96.80
2018-07-24T08:24:01.990Z,96.60
2018-07-24T08:29:00.652Z,96.40
2018-07-24T08:33:59.400Z,95.90
2018-07-24T08:36:29.032Z,96.00
2018-07-24T08:38:58.608Z,95.40
2018-07-24T08:41:28.151Z,95.20
2018-07-24T08:43:57.711Z,94.70
2018-07-24T08:48:56.351Z,94.80
2018-07-24T08:51:25.928Z,94.50
2018-07-24T08:53:55.760Z,94.40
2018-07-24T08:56:25.143Z,94.50
2018-07-24T08:58:54.736Z,94.60
2018-07-24T09:01:24.393Z,93.50
2018-07-24T09:03:54.039Z,93.40
2018-07-24T09:06:23.661Z,93.40
2018-07-24T09:13:51.011Z,91.20
2018-07-24T09:16:20.408Z,87.50
2018-07-24T09:18:49.732Z,89.40
2018-07-24T09:21:19.109Z,88.40
2018-07-24T09:23:48.989Z,88.10
2018-07-24T09:26:18.712Z,83.70
2018-07-24T09:28:48.409Z,87.30
2018-07-24T09:31:18.162Z,84.40
2018-07-24T09:33:47.904Z,80.70
2018-07-24T09:36:18.525Z,80.30
2018-07-24T09:38:48.173Z,80.10
2018-07-24T09:41:17.575Z,79.10
2018-07-24T09:43:47.009Z,79.60
2018-07-24T09:46:16.371Z,80.40
2018-07-24T09:48:45.689Z,78.30
2018-07-24T09:51:15.383Z,75.90
2018-07-24T09:53:44.969Z,78.20
2018-07-24T09:56:14.392Z,76.10
2018-07-24T09:58:43.713Z,77.40
2018-07-24T10:01:18.328Z,77.60
2018-07-24T10:06:16.552Z,75.80
2018-07-24T10:08:45.897Z,73.90
2018-07-24T10:13:44.099Z,73.20
2018-07-24T10:16:13.609Z,73.10
2018-07-24T10:21:11.946Z,72.30
2018-07-24T10:23:41.287Z,71.40
2018-07-24T10:26:10.660Z,73.40
2018-07-24T10:28:39.996Z,73.30
2018-07-24T10:31:09.322Z,70.00
2018-07-24T10:33:38.655Z,69.30
2018-07-24T10:36:08.020Z,71.00
2018-07-24T10:38:37.623Z,67.70
2018-07-24T10:41:07.432Z,67.70
2018-07-24T10:46:06.313Z,67.40
2018-07-24T10:48:35.631Z,66.10
2018-07-24T10:51:05.010Z,63.70
2018-07-24T10:53:34.377Z,64.00
2018-07-24T10:56:03.797Z,64.00
2018-07-24T10:58:33.118Z,61.70
2018-07-24T11:01:02.526Z,63.80
2018-07-24T11:03:31.869Z,63.40
2018-07-24T11:08:30.087Z,63.70
2018-07-24T11:10:59.447Z,62.70
2018-07-24T11:13:28.828Z,63.90
2018-07-24T11:15:58.197Z,63.20
2018-07-24T11:18:27.528Z,62.00
2018-07-24T11:20:56.886Z,59.90
2018-07-24T11:23:26.253Z,61.60
2018-07-24T11:25:55.606Z,62.40
2018-07-24T11:28:25.055Z,60.50
2018-07-24T11:30:54.413Z,59.70
2018-07-24T11:33:23.843Z,57.80
2018-07-24T11:35:53.304Z,58.40
2018-07-24T11:38:22.586Z,59.70
2018-07-24T11:40:51.926Z,59.70
2018-07-24T11:43:21.296Z,60.80
2018-07-24T11:45:50.641Z,60.50
2018-07-24T11:48:20.044Z,59.70
2018-07-24T11:50:49.386Z,59.00
2018-07-24T11:55:47.625Z,58.70
2018-07-24T11:58:17.021Z,58.30
2018-07-24T12:00:46.416Z,57.70
2018-07-24T12:03:15.785Z,57.80
2018-07-24T12:05:45.124Z,59.30
2018-07-24T12:08:14.496Z,56.80
2018-07-24T12:10:43.813Z,57.60
2018-07-24T12:13:13.173Z,57.20
2018-07-24T12:15:42.476Z,55.90
2018-07-24T12:18:11.857Z,57.10
2018-07-24T12:20:41.193Z,57.70
2018-07-24T12:25:40.478Z,57.60
2018-07-24T12:28:10.046Z,55.50
2018-07-24T12:30:39.549Z,55.60
2018-07-24T12:33:09.202Z,56.60
2018-07-24T12:35:41.847Z,55.30
2018-07-24T12:38:11.467Z,54.40
2018-07-24T12:40:40.964Z,55.50
2018-07-24T12:43:10.598Z,55.30
2018-07-24T12:45:39.932Z,55.40
2018-07-24T12:48:09.297Z,56.70
2018-07-24T12:50:38.725Z,56.00
2018-07-24T12:58:05.954Z,54.90
2018-07-24T13:00:35.362Z,52.50
2018-07-24T13:03:04.735Z,53.60
2018-07-24T13:10:31.907Z,54.20
2018-07-24T13:13:01.272Z,53.20
2018-07-24T13:15:30.656Z,56.00
2018-07-24T13:18:00.049Z,52.60
2018-07-24T13:20:29.386Z,52.80
2018-07-24T13:22:58.725Z,56.10
2018-07-24T13:27:56.913Z,56.90
2018-07-24T13:32:55.877Z,52.80
2018-07-24T13:35:25.265Z,54.90
2018-07-24T13:37:54.577Z,53.60
2018-07-24T13:40:23.952Z,53.70
2018-07-24T13:42:53.331Z,52.30
2018-07-24T13:47:51.567Z,52.00
2018-07-24T13:50:20.959Z,51.90
2018-07-24T13:52:50.287Z,51.60
2018-07-24T13:55:19.705Z,51.50
2018-07-24T13:57:49.029Z,53.30
2018-07-24T14:02:47.281Z,52.60
2018-07-24T14:05:16.653Z,52.70
2018-07-24T14:07:45.990Z,51.90
2018-07-24T14:10:15.352Z,51.40
2018-07-24T14:12:45.050Z,53.70
2018-07-24T14:15:14.400Z,52.90
2018-07-24T14:17:43.889Z,54.50
2018-07-24T14:20:13.260Z,53.00
2018-07-24T14:22:42.611Z,58.50
2018-07-24T14:25:11.985Z,56.20
2018-07-24T14:27:41.365Z,56.00
2018-07-24T14:30:10.736Z,51.00
2018-07-24T14:32:40.100Z,50.60
2018-07-24T14:35:09.454Z,51.40
2018-07-24T14:40:07.704Z,51.40
2018-07-24T14:42:37.033Z,51.40
2018-07-24T14:45:06.664Z,51.40
2018-07-24T14:47:36.040Z,50.80
2018-07-24T14:50:05.491Z,51.30
2018-07-24T14:52:34.889Z,50.10
2018-07-24T14:55:04.268Z,50.00
2018-07-24T15:00:02.536Z,47.90
2018-07-24T15:05:00.810Z,50.10
2018-07-24T15:07:30.212Z,48.50
2018-07-24T15:09:59.591Z,49.60
2018-07-24T15:12:28.991Z,49.20
2018-07-24T15:14:58.378Z,48.80
2018-07-24T15:17:27.726Z,48.30
2018-07-24T15:19:57.107Z,47.40
2018-07-24T15:22:26.496Z,47.00
2018-07-24T15:24:55.844Z,46.70
2018-07-24T15:27:25.297Z,47.40
2018-07-24T15:29:54.641Z,46.80
2018-07-24T15:32:24.061Z,47.10
2018-07-24T15:34:53.475Z,46.70
2018-07-24T15:37:22.863Z,45.50
2018-07-24T15:39:52.215Z,45.80
2018-07-24T15:42:21.574Z,45.10
2018-07-24T15:44:51.072Z,45.90
2018-07-24T15:47:20.656Z,45.50
2018-07-24T15:49:50.229Z,44.10
2018-07-24T15:52:19.872Z,43.50
2018-07-24T15:54:49.754Z,44.80
2018-07-24T15:57:19.109Z,46.90
2018-07-24T15:59:48.503Z,46.10
2018-07-24T16:02:17.839Z,46.20
2018-07-24T16:04:47.202Z,44.90
2018-07-24T16:07:16.571Z,44.60
2018-07-24T16:09:45.933Z,44.90
2018-07-24T16:14:44.588Z,46.60
2018-07-24T16:17:14.232Z,44.30
2018-07-24T16:19:43.704Z,45.50
2018-07-24T16:22:13.063Z,47.70
2018-07-24T16:27:11.281Z,46.80
2018-07-24T16:29:40.633Z,47.20
2018-07-24T16:32:10.124Z,47.80
2018-07-24T16:34:39.472Z,45.70
2018-07-24T16:37:08.872Z,48.10
2018-07-24T16:39:38.218Z,48.40
2018-07-24T16:42:07.787Z,48.10
2018-07-24T16:44:37.157Z,48.70
2018-07-24T16:47:06.699Z,47.40
2018-07-24T16:49:36.026Z,44.30
2018-07-24T16:52:05.441Z,44.90
2018-07-24T16:54:35.030Z,47.60
2018-07-24T16:57:04.647Z,45.70
2018-07-24T16:59:34.107Z,46.30
2018-07-24T17:02:03.828Z,47.00
2018-07-24T17:04:33.365Z,46.40
2018-07-24T17:07:02.904Z,47.00
2018-07-24T17:14:30.752Z,47.90
2018-07-24T17:17:00.260Z,47.70
2018-07-24T17:19:29.631Z,47.40
2018-07-24T17:21:59.887Z,48.10
2018-07-24T17:24:29.265Z,48.20
2018-07-24T17:26:58.639Z,47.90
2018-07-24T17:29:34.348Z,47.80
2018-07-24T17:32:03.733Z,48.10
2018-07-24T17:34:33.080Z,48.80
2018-07-24T17:37:02.378Z,50.30
2018-07-24T17:39:31.828Z,51.80
2018-07-24T17:42:01.443Z,53.30
2018-07-24T17:44:31.007Z,54.70
2018-07-24T17:47:00.575Z,55.20
2018-07-24T17:49:30.115Z,56.70
2018-07-24T17:54:28.690Z,58.80
2018-07-24T17:56:58.231Z,60.80
2018-07-24T17:59:27.612Z,62.70
2018-07-24T18:01:56.964Z,64.10
2018-07-24T18:04:26.362Z,65.70
2018-07-24T18:06:55.812Z,66.50
2018-07-24T18:09:25.253Z,67.90
2018-07-24T18:11:54.579Z,68.20
2018-07-24T18:14:23.917Z,69.00
2018-07-24T18:16:53.264Z,70.30
2018-07-24T18:21:51.493Z,71.20
2018-07-24T18:24:20.864Z,71.80
2018-07-24T18:26:50.209Z,72.10
2018-07-24T18:29:20.100Z,72.70
2018-07-24T18:31:49.472Z,73.40
2018-07-24T18:36:47.892Z,74.80
2018-07-24T18:39:17.235Z,77.40
2018-07-24T18:41:46.560Z,78.60
2018-07-24T18:44:15.936Z,79.60
2018-07-24T18:46:46.182Z,80.60
2018-07-24T18:49:15.568Z,81.50
2018-07-24T18:51:44.900Z,82.30
2018-07-24T18:54:14.375Z,83.30
2018-07-24T18:56:43.991Z,84.00
2018-07-24T18:59:13.636Z,84.50
2018-07-24T19:01:43.183Z,85.00
2018-07-24T19:04:12.569Z,85.20
2018-07-24T19:06:41.917Z,86.30
2018-07-24T19:09:11.895Z,87.30
2018-07-24T19:11:41.237Z,87.60
2018-07-24T19:14:10.540Z,88.00
2018-07-24T19:16:39.997Z,88.40
2018-07-24T19:19:09.624Z,89.10
2018-07-24T19:21:39.133Z,89.80
2018-07-24T19:24:09.053Z,89.20
2018-07-24T19:26:38.599Z,89.80
2018-07-24T19:29:08.183Z,90.00
2018-07-24T19:31:37.855Z,90.10
2018-07-24T19:34:07.532Z,90.30
2018-07-24T19:36:37.140Z,90.20
2018-07-24T19:39:09.482Z,90.30
2018-07-24T19:41:39.160Z,90.40
2018-07-24T19:44:09.141Z,90.60
2018-07-24T19:46:38.766Z,90.70
2018-07-24T19:49:08.072Z,90.70
2018-07-24T19:51:37.428Z,90.80
2018-07-24T19:54:06.786Z,90.90
2018-07-24T19:56:36.113Z,91.00
2018-07-24T19:59:05.520Z,91.10
2018-07-24T20:01:34.920Z,91.10
2018-07-24T20:04:04.305Z,91.00
2018-07-24T20:06:33.684Z,91.10
2018-07-24T20:09:03.065Z,91.30
2018-07-24T20:11:32.538Z,91.30
2018-07-24T20:14:01.932Z,91.50
2018-07-24T20:16:31.463Z,91.70
2018-07-24T20:19:00.792Z,91.60
2018-07-24T20:21:30.164Z,91.90
2018-07-24T20:26:28.512Z,92.00
2018-07-24T20:28:57.927Z,92.60
2018-07-24T20:31:27.386Z,92.80
2018-07-24T20:33:56.708Z,93.00
2018-07-24T20:36:26.042Z,93.10
2018-07-24T20:38:55.409Z,93.40
2018-07-24T20:41:24.777Z,93.70
2018-07-24T20:43:54.161Z,94.00
2018-07-24T20:46:23.523Z,94.10
2018-07-24T20:48:52.860Z,94.20
2018-07-24T20:51:22.216Z,94.30
2018-07-24T20:53:51.712Z,94.30
2018-07-24T20:56:21.684Z,94.40
2018-07-24T20:58:51.128Z,94.50
2018-07-24T21:01:20.577Z,94.70
2018-07-24T21:03:49.940Z,94.70
2018-07-24T21:06:19.400Z,94.70
2018-07-24T21:08:48.911Z,94.80
2018-07-24T21:11:18.306Z,94.90
2018-07-24T21:13:47.644Z,95.00
2018-07-24T21:16:17.023Z,95.10
2018-07-24T21:21:15.292Z,95.20
2018-07-24T21:23:44.762Z,95.20
2018-07-24T21:26:14.104Z,95.30
2018-07-24T21:28:43.435Z,95.30
2018-07-24T21:31:12.799Z,95.40
2018-07-24T21:33:42.235Z,95.40
2018-07-24T21:38:40.419Z,95.60
2018-07-24T21:41:09.752Z,95.60
2018-07-24T21:43:39.928Z,95.70
2018-07-24T21:46:09.319Z,95.90
2018-07-24T21:48:38.674Z,96.00
2018-07-24T21:51:08.031Z,96.00
2018-07-24T21:53:37.463Z,96.10
2018-07-24T21:56:07.541Z,96.60
2018-07-24T21:58:37.141Z,96.20
2018-07-24T22:01:11.720Z,96.10
2018-07-24T22:06:11.001Z,96.00
2018-07-24T22:08:40.708Z,96.20
2018-07-24T22:11:10.242Z,96.20
2018-07-24T22:13:39.905Z,96.40
2018-07-24T22:16:09.377Z,96.60
2018-07-24T22:18:38.958Z,96.70
2018-07-24T22:21:08.905Z,96.90
2018-07-24T22:23:38.327Z,97.10
2018-07-24T22:26:07.657Z,97.00
2018-07-24T22:28:37.073Z,97.00
2018-07-24T22:31:06.365Z,97.00
2018-07-24T22:38:33.613Z,97.00
2018-07-24T22:41:02.976Z,97.00
2018-07-24T22:46:01.241Z,97.30
2018-07-24T22:48:30.615Z,97.50
2018-07-24T22:50:59.947Z,97.80
2018-07-24T22:53:29.270Z,97.60
2018-07-24T22:58:27.487Z,97.50
2018-07-24T23:00:56.810Z,97.30
2018-07-24T23:03:26.170Z,97.40
2018-07-24T23:05:55.512Z,97.80
2018-07-24T23:08:24.869Z,97.60
2018-07-24T23:10:54.255Z,97.70
2018-07-24T23:13:23.621Z,97.80
2018-07-24T23:15:59.431Z,98.00
2018-07-24T23:18:28.762Z,98.10
2018-07-24T23:20:58.088Z,98.00
2018-07-24T23:23:27.426Z,98.00
2018-07-24T23:28:25.657Z,98.40
2018-07-24T23:30:55.000Z,98.40
2018-07-24T23:33:24.361Z,98.50
2018-07-24T23:35:53.747Z,98.50
2018-07-24T23:38:23.126Z,98.50
2018-07-24T23:40:52.517Z,98.40
2018-07-24T23:43:21.890Z,98.50
2018-07-24T23:45:51.219Z,98.70
2018-07-24T23:48:20.534Z,98.80
2018-07-24T23:50:49.929Z,99.10
2018-07-24T23:55:48.232Z,99.00
